sensor_id;sensor_type;location;lat;lon;timestamp;P1;durP1;ratioP1;P2;durP2;ratioP2
45466;SDS011;31212;49.734;8.490;2023-06-26T00:01:44;5.75;;;3.95;;
45466;SDS011;31212;49.734;8.490;2023-06-26T00:04:10;7.93;;;4.13;;
45466;SDS011;31212;49.734;8.490;2023-06-26T00:06:39;7.78;;;4.25;;
45466;SDS011;31212;49.734;8.490;2023-06-26T00:09:06;9.88;;;4.50;;
45466;SDS011;31212;49.734;8.490;2023-06-26T00:11:33;10.38;;;4.03;;
45466;SDS011;31212;49.734;8.490;2023-06-26T00:14:01;7.45;;;3.90;;
45466;SDS011;31212;49.734;8.490;2023-06-26T00:16:28;9.23;;;4.70;;
45466;SDS011;31212;49.734;8.490;2023-06-26T00:18:56;6.95;;;4.05;;
45466;SDS011;31212;49.734;8.490;2023-06-26T00:21:23;5.63;;;3.17;;
45466;SDS011;31212;49.734;8.490;2023-06-26T00:23:50;5.55;;;3.45;;
45466;SDS011;31212;49.734;8.490;2023-06-26T00:26:16;6.80;;;4.35;;
45466;SDS011;31212;49.734;8.490;2023-06-26T00:28:43;7.32;;;4.07;;
45466;SDS011;31212;49.734;8.490;2023-06-26T00:31:11;9.35;;;4.38;;
45466;SDS011;31212;49.734;8.490;2023-06-26T00:33:37;15.20;;;4.10;;
45466;SDS011;31212;49.734;8.490;2023-06-26T00:36:04;8.05;;;4.22;;
45466;SDS011;31212;49.734;8.490;2023-06-26T00:38:30;11.43;;;4.38;;
45466;SDS011;31212;49.734;8.490;2023-06-26T00:40:57;10.38;;;3.83;;
45466;SDS011;31212;49.734;8.490;2023-06-26T00:43:24;7.68;;;4.15;;
45466;SDS011;31212;49.734;8.490;2023-06-26T00:45:50;6.47;;;3.78;;
45466;SDS011;31212;49.734;8.490;2023-06-26T00:48:19;14.82;;;4.57;;
45466;SDS011;31212;49.734;8.490;2023-06-26T00:50:46;6.80;;;3.95;;
45466;SDS011;31212;49.734;8.490;2023-06-26T00:53:13;7.07;;;3.83;;
45466;SDS011;31212;49.734;8.490;2023-06-26T00:55:39;10.57;;;4.75;;
45466;SDS011;31212;49.734;8.490;2023-06-26T00:58:08;9.65;;;4.15;;
45466;SDS011;31212;49.734;8.490;2023-06-26T01:00:34;10.07;;;3.83;;
45466;SDS011;31212;49.734;8.490;2023-06-26T01:03:01;9.27;;;4.85;;
45466;SDS011;31212;49.734;8.490;2023-06-26T01:05:29;7.90;;;4.25;;
45466;SDS011;31212;49.734;8.490;2023-06-26T01:07:56;7.95;;;4.45;;
45466;SDS011;31212;49.734;8.490;2023-06-26T01:10:24;6.88;;;4.30;;
45466;SDS011;31212;49.734;8.490;2023-06-26T01:12:52;6.35;;;4.40;;
45466;SDS011;31212;49.734;8.490;2023-06-26T01:15:19;7.18;;;4.32;;
45466;SDS011;31212;49.734;8.490;2023-06-26T01:17:46;8.20;;;4.35;;
45466;SDS011;31212;49.734;8.490;2023-06-26T01:20:13;9.57;;;4.20;;
45466;SDS011;31212;49.734;8.490;2023-06-26T01:22:45;7.95;;;4.50;;
45466;SDS011;31212;49.734;8.490;2023-06-26T01:25:21;6.68;;;4.22;;
45466;SDS011;31212;49.734;8.490;2023-06-26T01:27:57;9.63;;;3.90;;
45466;SDS011;31212;49.734;8.490;2023-06-26T01:30:24;6.80;;;3.88;;
45466;SDS011;31212;49.734;8.490;2023-06-26T01:32:51;5.85;;;4.05;;
45466;SDS011;31212;49.734;8.490;2023-06-26T01:35:21;8.60;;;4.85;;
45466;SDS011;31212;49.734;8.490;2023-06-26T01:37:47;6.45;;;4.22;;
45466;SDS011;31212;49.734;8.490;2023-06-26T01:40:14;6.85;;;4.05;;
45466;SDS011;31212;49.734;8.490;2023-06-26T01:42:40;7.95;;;4.13;;
45466;SDS011;31212;49.734;8.490;2023-06-26T01:45:09;8.82;;;3.95;;
45466;SDS011;31212;49.734;8.490;2023-06-26T01:47:42;7.85;;;4.68;;
45466;SDS011;31212;49.734;8.490;2023-06-26T01:50:16;5.82;;;4.28;;
45466;SDS011;31212;49.734;8.490;2023-06-26T01:55:21;6.65;;;4.07;;
45466;SDS011;31212;49.734;8.490;2023-06-26T01:57:52;5.70;;;4.00;;
45466;SDS011;31212;49.734;8.490;2023-06-26T02:00:23;7.97;;;3.92;;
45466;SDS011;31212;49.734;8.490;2023-06-26T02:02:51;7.00;;;4.07;;
45466;SDS011;31212;49.734;8.490;2023-06-26T02:05:18;12.85;;;4.45;;
45466;SDS011;31212;49.734;8.490;2023-06-26T02:07:44;5.25;;;3.05;;
45466;SDS011;31212;49.734;8.490;2023-06-26T02:10:11;10.80;;;4.18;;
45466;SDS011;31212;49.734;8.490;2023-06-26T02:12:39;7.15;;;4.30;;
45466;SDS011;31212;49.734;8.490;2023-06-26T02:15:06;5.97;;;3.65;;
45466;SDS011;31212;49.734;8.490;2023-06-26T02:17:35;4.63;;;3.60;;
45466;SDS011;31212;49.734;8.490;2023-06-26T02:20:02;6.30;;;3.85;;
45466;SDS011;31212;49.734;8.490;2023-06-26T02:22:29;7.55;;;3.78;;
45466;SDS011;31212;49.734;8.490;2023-06-26T02:24:55;10.95;;;3.42;;
45466;SDS011;31212;49.734;8.490;2023-06-26T02:27:22;5.30;;;3.30;;
45466;SDS011;31212;49.734;8.490;2023-06-26T02:29:48;7.78;;;4.88;;
45466;SDS011;31212;49.734;8.490;2023-06-26T02:32:15;6.82;;;3.55;;
45466;SDS011;31212;49.734;8.490;2023-06-26T02:34:42;6.22;;;3.70;;
45466;SDS011;31212;49.734;8.490;2023-06-26T02:37:09;6.97;;;3.78;;
45466;SDS011;31212;49.734;8.490;2023-06-26T02:39:36;6.20;;;3.38;;
45466;SDS011;31212;49.734;8.490;2023-06-26T02:42:03;7.22;;;3.38;;
45466;SDS011;31212;49.734;8.490;2023-06-26T02:44:29;5.57;;;3.42;;
45466;SDS011;31212;49.734;8.490;2023-06-26T02:46:56;6.03;;;3.42;;
45466;SDS011;31212;49.734;8.490;2023-06-26T02:49:22;10.05;;;3.90;;
45466;SDS011;31212;49.734;8.490;2023-06-26T02:51:50;7.40;;;3.63;;
45466;SDS011;31212;49.734;8.490;2023-06-26T02:54:23;6.95;;;4.40;;
45466;SDS011;31212;49.734;8.490;2023-06-26T02:56:53;8.30;;;5.13;;
45466;SDS011;31212;49.734;8.490;2023-06-26T02:59:25;8.15;;;4.65;;
45466;SDS011;31212;49.734;8.490;2023-06-26T03:01:53;8.77;;;4.07;;
45466;SDS011;31212;49.734;8.490;2023-06-26T03:04:25;13.32;;;4.35;;
45466;SDS011;31212;49.734;8.490;2023-06-26T03:06:53;8.55;;;4.88;;
45466;SDS011;31212;49.734;8.490;2023-06-26T03:09:19;7.25;;;4.30;;
45466;SDS011;31212;49.734;8.490;2023-06-26T03:11:48;9.43;;;4.03;;
45466;SDS011;31212;49.734;8.490;2023-06-26T03:14:15;6.97;;;4.63;;
45466;SDS011;31212;49.734;8.490;2023-06-26T03:16:42;7.03;;;3.72;;
45466;SDS011;31212;49.734;8.490;2023-06-26T03:19:09;6.43;;;3.90;;
45466;SDS011;31212;49.734;8.490;2023-06-26T03:21:56;6.85;;;4.30;;
45466;SDS011;31212;49.734;8.490;2023-06-26T03:24:23;8.32;;;4.65;;
45466;SDS011;31212;49.734;8.490;2023-06-26T03:26:49;7.93;;;4.30;;
45466;SDS011;31212;49.734;8.490;2023-06-26T03:29:16;6.38;;;4.05;;
45466;SDS011;31212;49.734;8.490;2023-06-26T03:31:43;7.20;;;4.53;;
45466;SDS011;31212;49.734;8.490;2023-06-26T03:34:09;6.35;;;4.32;;
45466;SDS011;31212;49.734;8.490;2023-06-26T03:36:36;7.70;;;4.47;;
45466;SDS011;31212;49.734;8.490;2023-06-26T03:39:04;7.88;;;5.32;;
45466;SDS011;31212;49.734;8.490;2023-06-26T03:41:31;8.02;;;4.15;;
45466;SDS011;31212;49.734;8.490;2023-06-26T03:43:58;11.30;;;4.88;;
45466;SDS011;31212;49.734;8.490;2023-06-26T03:48:57;10.45;;;4.75;;
45466;SDS011;31212;49.734;8.490;2023-06-26T03:51:23;9.07;;;3.88;;
45466;SDS011;31212;49.734;8.490;2023-06-26T03:53:50;6.05;;;4.57;;
45466;SDS011;31212;49.734;8.490;2023-06-26T03:56:18;8.10;;;4.43;;
45466;SDS011;31212;49.734;8.490;2023-06-26T03:58:44;6.35;;;4.05;;
45466;SDS011;31212;49.734;8.490;2023-06-26T04:01:11;7.10;;;4.45;;
45466;SDS011;31212;49.734;8.490;2023-06-26T04:03:37;8.02;;;4.28;;
45466;SDS011;31212;49.734;8.490;2023-06-26T04:06:04;7.85;;;4.82;;
45466;SDS011;31212;49.734;8.490;2023-06-26T04:08:31;8.68;;;4.55;;
45466;SDS011;31212;49.734;8.490;2023-06-26T04:10:58;8.63;;;5.07;;
45466;SDS011;31212;49.734;8.490;2023-06-26T04:13:26;8.43;;;4.63;;
45466;SDS011;31212;49.734;8.490;2023-06-26T04:15:52;9.40;;;4.88;;
45466;SDS011;31212;49.734;8.490;2023-06-26T04:18:19;8.68;;;4.63;;
45466;SDS011;31212;49.734;8.490;2023-06-26T04:23:31;8.70;;;3.95;;
45466;SDS011;31212;49.734;8.490;2023-06-26T04:25:58;8.20;;;4.82;;
45466;SDS011;31212;49.734;8.490;2023-06-26T04:28:26;8.52;;;4.40;;
45466;SDS011;31212;49.734;8.490;2023-06-26T04:30:52;6.93;;;3.67;;
45466;SDS011;31212;49.734;8.490;2023-06-26T04:33:19;6.20;;;4.10;;
45466;SDS011;31212;49.734;8.490;2023-06-26T04:35:46;11.60;;;5.60;;
45466;SDS011;31212;49.734;8.490;2023-06-26T04:38:13;8.90;;;5.53;;
45466;SDS011;31212;49.734;8.490;2023-06-26T04:40:40;9.25;;;4.95;;
45466;SDS011;31212;49.734;8.490;2023-06-26T04:43:07;8.43;;;5.13;;
45466;SDS011;31212;49.734;8.490;2023-06-26T04:45:35;11.27;;;5.45;;
45466;SDS011;31212;49.734;8.490;2023-06-26T04:48:02;6.88;;;4.38;;
45466;SDS011;31212;49.734;8.490;2023-06-26T04:50:29;7.22;;;3.55;;
45466;SDS011;31212;49.734;8.490;2023-06-26T04:52:56;7.50;;;5.15;;
45466;SDS011;31212;49.734;8.490;2023-06-26T04:55:23;8.07;;;5.47;;
45466;SDS011;31212;49.734;8.490;2023-06-26T04:57:50;15.82;;;5.57;;
45466;SDS011;31212;49.734;8.490;2023-06-26T05:00:17;8.60;;;4.75;;
45466;SDS011;31212;49.734;8.490;2023-06-26T05:02:45;10.88;;;5.43;;
45466;SDS011;31212;49.734;8.490;2023-06-26T05:05:12;9.15;;;5.30;;
45466;SDS011;31212;49.734;8.490;2023-06-26T05:07:40;13.40;;;5.70;;
45466;SDS011;31212;49.734;8.490;2023-06-26T05:10:08;7.75;;;4.78;;
45466;SDS011;31212;49.734;8.490;2023-06-26T05:12:34;9.85;;;5.25;;
45466;SDS011;31212;49.734;8.490;2023-06-26T05:15:01;9.38;;;4.88;;
45466;SDS011;31212;49.734;8.490;2023-06-26T05:17:28;7.93;;;5.03;;
45466;SDS011;31212;49.734;8.490;2023-06-26T05:19:57;8.75;;;5.03;;
45466;SDS011;31212;49.734;8.490;2023-06-26T05:22:24;7.82;;;5.15;;
45466;SDS011;31212;49.734;8.490;2023-06-26T05:24:52;8.85;;;5.32;;
45466;SDS011;31212;49.734;8.490;2023-06-26T05:27:21;8.48;;;4.60;;
45466;SDS011;31212;49.734;8.490;2023-06-26T05:29:48;8.85;;;5.13;;
45466;SDS011;31212;49.734;8.490;2023-06-26T05:32:16;10.88;;;4.70;;
45466;SDS011;31212;49.734;8.490;2023-06-26T05:34:43;7.65;;;4.57;;
45466;SDS011;31212;49.734;8.490;2023-06-26T05:37:14;13.50;;;5.53;;
45466;SDS011;31212;49.734;8.490;2023-06-26T05:39:45;7.40;;;4.35;;
45466;SDS011;31212;49.734;8.490;2023-06-26T05:42:12;7.70;;;4.53;;
45466;SDS011;31212;49.734;8.490;2023-06-26T05:44:39;10.27;;;5.03;;
45466;SDS011;31212;49.734;8.490;2023-06-26T05:47:05;8.73;;;4.80;;
45466;SDS011;31212;49.734;8.490;2023-06-26T05:49:33;12.68;;;4.93;;
45466;SDS011;31212;49.734;8.490;2023-06-26T05:52:00;7.80;;;5.15;;
45466;SDS011;31212;49.734;8.490;2023-06-26T05:54:29;8.90;;;5.38;;
45466;SDS011;31212;49.734;8.490;2023-06-26T05:56:56;8.98;;;5.00;;
45466;SDS011;31212;49.734;8.490;2023-06-26T05:59:24;10.23;;;5.40;;
45466;SDS011;31212;49.734;8.490;2023-06-26T06:01:52;10.45;;;5.32;;
45466;SDS011;31212;49.734;8.490;2023-06-26T06:04:19;8.98;;;5.07;;
45466;SDS011;31212;49.734;8.490;2023-06-26T06:06:46;9.48;;;4.97;;
45466;SDS011;31212;49.734;8.490;2023-06-26T06:09:12;8.68;;;4.95;;
45466;SDS011;31212;49.734;8.490;2023-06-26T06:11:40;9.27;;;5.30;;
45466;SDS011;31212;49.734;8.490;2023-06-26T06:14:07;7.47;;;4.68;;
45466;SDS011;31212;49.734;8.490;2023-06-26T06:16:33;7.07;;;4.30;;
45466;SDS011;31212;49.734;8.490;2023-06-26T06:19:00;6.35;;;4.28;;
45466;SDS011;31212;49.734;8.490;2023-06-26T06:21:28;11.07;;;4.97;;
45466;SDS011;31212;49.734;8.490;2023-06-26T06:23:54;11.68;;;5.20;;
45466;SDS011;31212;49.734;8.490;2023-06-26T06:26:21;9.98;;;5.03;;
45466;SDS011;31212;49.734;8.490;2023-06-26T06:28:49;8.00;;;5.03;;
45466;SDS011;31212;49.734;8.490;2023-06-26T06:31:15;9.20;;;4.85;;
45466;SDS011;31212;49.734;8.490;2023-06-26T06:33:42;10.18;;;4.95;;
45466;SDS011;31212;49.734;8.490;2023-06-26T06:36:08;10.00;;;5.13;;
45466;SDS011;31212;49.734;8.490;2023-06-26T06:38:35;7.88;;;4.68;;
45466;SDS011;31212;49.734;8.490;2023-06-26T06:41:02;9.38;;;5.40;;
45466;SDS011;31212;49.734;8.490;2023-06-26T06:43:28;11.52;;;4.40;;
45466;SDS011;31212;49.734;8.490;2023-06-26T06:45:56;11.20;;;5.22;;
45466;SDS011;31212;49.734;8.490;2023-06-26T06:48:23;7.55;;;4.28;;
45466;SDS011;31212;49.734;8.490;2023-06-26T06:50:49;7.00;;;3.95;;
45466;SDS011;31212;49.734;8.490;2023-06-26T06:53:17;6.93;;;4.38;;
45466;SDS011;31212;49.734;8.490;2023-06-26T06:55:45;8.13;;;4.57;;
45466;SDS011;31212;49.734;8.490;2023-06-26T06:58:12;6.80;;;4.50;;
45466;SDS011;31212;49.734;8.490;2023-06-26T07:00:38;5.95;;;3.97;;
45466;SDS011;31212;49.734;8.490;2023-06-26T07:03:12;7.40;;;4.55;;
45466;SDS011;31212;49.734;8.490;2023-06-26T07:05:38;5.75;;;4.03;;
45466;SDS011;31212;49.734;8.490;2023-06-26T07:08:05;8.30;;;5.15;;
45466;SDS011;31212;49.734;8.490;2023-06-26T07:10:31;11.77;;;5.07;;
45466;SDS011;31212;49.734;8.490;2023-06-26T07:12:58;9.25;;;5.68;;
45466;SDS011;31212;49.734;8.490;2023-06-26T07:15:29;7.90;;;4.90;;
45466;SDS011;31212;49.734;8.490;2023-06-26T07:17:56;8.95;;;5.63;;
45466;SDS011;31212;49.734;8.490;2023-06-26T07:20:27;6.97;;;4.13;;
45466;SDS011;31212;49.734;8.490;2023-06-26T07:22:54;6.72;;;4.88;;
45466;SDS011;31212;49.734;8.490;2023-06-26T07:25:20;7.53;;;4.40;;
45466;SDS011;31212;49.734;8.490;2023-06-26T07:27:47;10.85;;;4.85;;
45466;SDS011;31212;49.734;8.490;2023-06-26T07:30:13;6.88;;;4.32;;
45466;SDS011;31212;49.734;8.490;2023-06-26T07:32:40;5.65;;;4.32;;
45466;SDS011;31212;49.734;8.490;2023-06-26T07:35:07;8.27;;;5.78;;
45466;SDS011;31212;49.734;8.490;2023-06-26T07:37:35;6.72;;;4.55;;
45466;SDS011;31212;49.734;8.490;2023-06-26T07:40:02;9.85;;;4.28;;
45466;SDS011;31212;49.734;8.490;2023-06-26T07:42:29;7.53;;;4.25;;
45466;SDS011;31212;49.734;8.490;2023-06-26T07:44:56;6.13;;;4.47;;
45466;SDS011;31212;49.734;8.490;2023-06-26T07:47:22;6.15;;;4.35;;
45466;SDS011;31212;49.734;8.490;2023-06-26T07:49:49;11.05;;;4.18;;
45466;SDS011;31212;49.734;8.490;2023-06-26T07:52:15;7.32;;;4.80;;
45466;SDS011;31212;49.734;8.490;2023-06-26T07:54:43;5.50;;;4.05;;
45466;SDS011;31212;49.734;8.490;2023-06-26T07:57:10;5.30;;;3.88;;
45466;SDS011;31212;49.734;8.490;2023-06-26T07:59:37;7.97;;;4.03;;
45466;SDS011;31212;49.734;8.490;2023-06-26T08:02:03;7.05;;;4.50;;
45466;SDS011;31212;49.734;8.490;2023-06-26T08:04:30;7.95;;;3.83;;
45466;SDS011;31212;49.734;8.490;2023-06-26T08:06:59;7.05;;;4.68;;
45466;SDS011;31212;49.734;8.490;2023-06-26T08:09:27;5.68;;;4.00;;
45466;SDS011;31212;49.734;8.490;2023-06-26T08:11:56;6.80;;;3.97;;
45466;SDS011;31212;49.734;8.490;2023-06-26T08:14:23;5.45;;;3.83;;
45466;SDS011;31212;49.734;8.490;2023-06-26T08:16:50;4.43;;;3.55;;
45466;SDS011;31212;49.734;8.490;2023-06-26T08:19:17;6.13;;;4.22;;
45466;SDS011;31212;49.734;8.490;2023-06-26T08:21:44;9.07;;;3.90;;
45466;SDS011;31212;49.734;8.490;2023-06-26T08:24:11;6.90;;;3.95;;
45466;SDS011;31212;49.734;8.490;2023-06-26T08:26:41;5.22;;;3.58;;
45466;SDS011;31212;49.734;8.490;2023-06-26T08:29:09;5.15;;;3.78;;
45466;SDS011;31212;49.734;8.490;2023-06-26T08:31:35;5.75;;;3.50;;
45466;SDS011;31212;49.734;8.490;2023-06-26T08:34:02;7.20;;;4.05;;
45466;SDS011;31212;49.734;8.490;2023-06-26T08:36:29;4.95;;;3.80;;
45466;SDS011;31212;49.734;8.490;2023-06-26T08:38:55;6.82;;;4.22;;
45466;SDS011;31212;49.734;8.490;2023-06-26T08:41:22;5.15;;;4.10;;
45466;SDS011;31212;49.734;8.490;2023-06-26T08:43:49;5.28;;;3.25;;
45466;SDS011;31212;49.734;8.490;2023-06-26T08:46:19;7.45;;;4.22;;
45466;SDS011;31212;49.734;8.490;2023-06-26T08:48:48;10.27;;;3.83;;
45466;SDS011;31212;49.734;8.490;2023-06-26T08:51:16;5.30;;;3.30;;
45466;SDS011;31212;49.734;8.490;2023-06-26T08:53:47;11.35;;;3.80;;
45466;SDS011;31212;49.734;8.490;2023-06-26T08:56:18;5.38;;;3.60;;
45466;SDS011;31212;49.734;8.490;2023-06-26T08:58:46;6.10;;;3.63;;
45466;SDS011;31212;49.734;8.490;2023-06-26T09:01:13;5.90;;;3.78;;
45466;SDS011;31212;49.734;8.490;2023-06-26T09:03:41;6.05;;;3.35;;
45466;SDS011;31212;49.734;8.490;2023-06-26T09:06:07;7.75;;;3.55;;
45466;SDS011;31212;49.734;8.490;2023-06-26T09:08:34;4.63;;;3.15;;
45466;SDS011;31212;49.734;8.490;2023-06-26T09:11:01;5.28;;;3.22;;
45466;SDS011;31212;49.734;8.490;2023-06-26T09:13:28;5.07;;;3.50;;
45466;SDS011;31212;49.734;8.490;2023-06-26T09:15:55;5.63;;;3.53;;
45466;SDS011;31212;49.734;8.490;2023-06-26T09:18:21;4.15;;;2.92;;
45466;SDS011;31212;49.734;8.490;2023-06-26T09:20:50;4.13;;;3.05;;
45466;SDS011;31212;49.734;8.490;2023-06-26T09:23:20;7.57;;;3.33;;
45466;SDS011;31212;49.734;8.490;2023-06-26T09:25:48;6.75;;;3.30;;
45466;SDS011;31212;49.734;8.490;2023-06-26T09:28:20;5.70;;;3.72;;
45466;SDS011;31212;49.734;8.490;2023-06-26T09:30:47;4.75;;;2.92;;
45466;SDS011;31212;49.734;8.490;2023-06-26T09:33:15;5.18;;;3.22;;
45466;SDS011;31212;49.734;8.490;2023-06-26T09:35:43;5.10;;;2.97;;
45466;SDS011;31212;49.734;8.490;2023-06-26T09:38:11;4.43;;;2.70;;
45466;SDS011;31212;49.734;8.490;2023-06-26T09:40:38;3.38;;;2.80;;
45466;SDS011;31212;49.734;8.490;2023-06-26T09:43:05;5.60;;;2.80;;
45466;SDS011;31212;49.734;8.490;2023-06-26T09:45:32;6.28;;;3.33;;
45466;SDS011;31212;49.734;8.490;2023-06-26T09:47:59;3.85;;;3.05;;
45466;SDS011;31212;49.734;8.490;2023-06-26T09:50:27;5.85;;;3.47;;
45466;SDS011;31212;49.734;8.490;2023-06-26T09:52:55;4.93;;;3.10;;
45466;SDS011;31212;49.734;8.490;2023-06-26T09:55:23;6.60;;;3.40;;
45466;SDS011;31212;49.734;8.490;2023-06-26T09:57:50;6.22;;;3.42;;
45466;SDS011;31212;49.734;8.490;2023-06-26T10:00:18;5.30;;;3.40;;
45466;SDS011;31212;49.734;8.490;2023-06-26T10:02:45;6.55;;;3.05;;
45466;SDS011;31212;49.734;8.490;2023-06-26T10:05:11;7.97;;;3.88;;
45466;SDS011;31212;49.734;8.490;2023-06-26T10:07:38;5.82;;;3.30;;
45466;SDS011;31212;49.734;8.490;2023-06-26T10:10:07;5.13;;;3.25;;
45466;SDS011;31212;49.734;8.490;2023-06-26T10:12:36;13.63;;;3.13;;
45466;SDS011;31212;49.734;8.490;2023-06-26T10:15:03;4.43;;;3.20;;
45466;SDS011;31212;49.734;8.490;2023-06-26T10:17:32;5.65;;;3.30;;
45466;SDS011;31212;49.734;8.490;2023-06-26T10:20:01;4.35;;;3.17;;
45466;SDS011;31212;49.734;8.490;2023-06-26T10:22:29;5.85;;;3.13;;
45466;SDS011;31212;49.734;8.490;2023-06-26T10:25:00;4.75;;;3.58;;
45466;SDS011;31212;49.734;8.490;2023-06-26T10:27:31;3.60;;;2.85;;
45466;SDS011;31212;49.734;8.490;2023-06-26T10:30:04;3.60;;;2.63;;
45466;SDS011;31212;49.734;8.490;2023-06-26T10:32:40;5.20;;;3.35;;
45466;SDS011;31212;49.734;8.490;2023-06-26T10:35:07;4.13;;;3.05;;
45466;SDS011;31212;49.734;8.490;2023-06-26T10:37:42;5.63;;;3.15;;
45466;SDS011;31212;49.734;8.490;2023-06-26T10:40:10;4.10;;;2.90;;
45466;SDS011;31212;49.734;8.490;2023-06-26T10:42:37;5.90;;;3.13;;
45466;SDS011;31212;49.734;8.490;2023-06-26T10:45:10;5.63;;;2.90;;
45466;SDS011;31212;49.734;8.490;2023-06-26T10:47:37;6.72;;;3.30;;
45466;SDS011;31212;49.734;8.490;2023-06-26T10:50:16;7.57;;;3.08;;
45466;SDS011;31212;49.734;8.490;2023-06-26T10:52:43;6.68;;;2.90;;
45466;SDS011;31212;49.734;8.490;2023-06-26T10:55:10;3.70;;;2.65;;
45466;SDS011;31212;49.734;8.490;2023-06-26T10:57:37;3.92;;;2.90;;
45466;SDS011;31212;49.734;8.490;2023-06-26T11:00:11;4.32;;;2.67;;
45466;SDS011;31212;49.734;8.490;2023-06-26T11:02:47;3.13;;;2.70;;
45466;SDS011;31212;49.734;8.490;2023-06-26T11:05:22;4.65;;;3.38;;
45466;SDS011;31212;49.734;8.490;2023-06-26T11:08:02;7.93;;;3.05;;
45466;SDS011;31212;49.734;8.490;2023-06-26T11:10:29;6.38;;;3.38;;
45466;SDS011;31212;49.734;8.490;2023-06-26T11:12:57;6.65;;;3.40;;
45466;SDS011;31212;49.734;8.490;2023-06-26T11:15:25;4.50;;;3.03;;
45466;SDS011;31212;49.734;8.490;2023-06-26T11:17:53;4.72;;;2.80;;
45466;SDS011;31212;49.734;8.490;2023-06-26T11:20:21;7.63;;;3.35;;
45466;SDS011;31212;49.734;8.490;2023-06-26T11:22:47;4.47;;;2.95;;
45466;SDS011;31212;49.734;8.490;2023-06-26T11:25:19;3.97;;;2.73;;
45466;SDS011;31212;49.734;8.490;2023-06-26T11:27:46;4.60;;;2.55;;
45466;SDS011;31212;49.734;8.490;2023-06-26T11:30:22;5.78;;;3.10;;
45466;SDS011;31212;49.734;8.490;2023-06-26T11:32:50;7.78;;;3.17;;
45466;SDS011;31212;49.734;8.490;2023-06-26T11:35:21;10.02;;;3.20;;
45466;SDS011;31212;49.734;8.490;2023-06-26T11:37:55;6.05;;;3.17;;
45466;SDS011;31212;49.734;8.490;2023-06-26T11:40:23;4.75;;;2.90;;
45466;SDS011;31212;49.734;8.490;2023-06-26T11:42:52;4.15;;;2.72;;
45466;SDS011;31212;49.734;8.490;2023-06-26T11:45:19;4.30;;;2.50;;
45466;SDS011;31212;49.734;8.490;2023-06-26T11:47:45;5.25;;;3.17;;
45466;SDS011;31212;49.734;8.490;2023-06-26T11:50:15;4.30;;;3.00;;
45466;SDS011;31212;49.734;8.490;2023-06-26T11:52:43;4.68;;;2.65;;
45466;SDS011;31212;49.734;8.490;2023-06-26T11:55:09;4.97;;;2.75;;
45466;SDS011;31212;49.734;8.490;2023-06-26T11:57:36;4.72;;;2.78;;
45466;SDS011;31212;49.734;8.490;2023-06-26T12:00:12;3.83;;;2.97;;
45466;SDS011;31212;49.734;8.490;2023-06-26T12:02:39;5.68;;;3.47;;
45466;SDS011;31212;49.734;8.490;2023-06-26T12:05:06;4.95;;;3.10;;
45466;SDS011;31212;49.734;8.490;2023-06-26T12:07:35;5.10;;;2.97;;
45466;SDS011;31212;49.734;8.490;2023-06-26T12:10:03;5.50;;;3.33;;
45466;SDS011;31212;49.734;8.490;2023-06-26T12:12:31;5.72;;;3.15;;
45466;SDS011;31212;49.734;8.490;2023-06-26T12:14:59;6.78;;;3.00;;
45466;SDS011;31212;49.734;8.490;2023-06-26T12:17:26;6.00;;;3.72;;
45466;SDS011;31212;49.734;8.490;2023-06-26T12:19:52;3.97;;;2.72;;
45466;SDS011;31212;49.734;8.490;2023-06-26T12:22:19;4.38;;;2.80;;
45466;SDS011;31212;49.734;8.490;2023-06-26T12:24:47;4.68;;;3.20;;
45466;SDS011;31212;49.734;8.490;2023-06-26T12:27:15;6.43;;;3.20;;
45466;SDS011;31212;49.734;8.490;2023-06-26T12:29:46;8.23;;;3.08;;
45466;SDS011;31212;49.734;8.490;2023-06-26T12:32:16;5.18;;;3.28;;
45466;SDS011;31212;49.734;8.490;2023-06-26T12:34:46;7.35;;;3.00;;
45466;SDS011;31212;49.734;8.490;2023-06-26T12:37:14;9.93;;;4.45;;
45466;SDS011;31212;49.734;8.490;2023-06-26T12:39:49;5.38;;;3.67;;
45466;SDS011;31212;49.734;8.490;2023-06-26T12:42:17;7.40;;;3.70;;
45466;SDS011;31212;49.734;8.490;2023-06-26T12:44:45;9.38;;;3.53;;
45466;SDS011;31212;49.734;8.490;2023-06-26T12:47:12;5.70;;;3.63;;
45466;SDS011;31212;49.734;8.490;2023-06-26T12:49:41;6.15;;;3.28;;
45466;SDS011;31212;49.734;8.490;2023-06-26T12:52:09;6.55;;;4.20;;
45466;SDS011;31212;49.734;8.490;2023-06-26T12:54:36;9.68;;;3.85;;
45466;SDS011;31212;49.734;8.490;2023-06-26T12:57:05;9.65;;;4.88;;
45466;SDS011;31212;49.734;8.490;2023-06-26T12:59:32;6.00;;;3.88;;
45466;SDS011;31212;49.734;8.490;2023-06-26T13:01:59;18.02;;;11.00;;
45466;SDS011;31212;49.734;8.490;2023-06-26T13:04:26;13.02;;;7.88;;
45466;SDS011;31212;49.734;8.490;2023-06-26T13:06:53;7.10;;;4.93;;
45466;SDS011;31212;49.734;8.490;2023-06-26T13:09:20;7.13;;;4.18;;
45466;SDS011;31212;49.734;8.490;2023-06-26T13:11:47;7.65;;;3.25;;
45466;SDS011;31212;49.734;8.490;2023-06-26T13:14:15;6.68;;;4.25;;
45466;SDS011;31212;49.734;8.490;2023-06-26T13:16:42;8.35;;;3.55;;
45466;SDS011;31212;49.734;8.490;2023-06-26T13:19:08;3.78;;;2.55;;
45466;SDS011;31212;49.734;8.490;2023-06-26T13:21:35;7.95;;;2.95;;
45466;SDS011;31212;49.734;8.490;2023-06-26T13:24:02;4.43;;;2.80;;
45466;SDS011;31212;49.734;8.490;2023-06-26T13:26:29;3.60;;;2.15;;
45466;SDS011;31212;49.734;8.490;2023-06-26T13:28:57;3.00;;;2.00;;
45466;SDS011;31212;49.734;8.490;2023-06-26T13:31:25;3.63;;;2.13;;
45466;SDS011;31212;49.734;8.490;2023-06-26T13:33:52;4.95;;;2.50;;
45466;SDS011;31212;49.734;8.490;2023-06-26T13:36:19;11.80;;;2.17;;
45466;SDS011;31212;49.734;8.490;2023-06-26T13:38:46;7.88;;;2.13;;
45466;SDS011;31212;49.734;8.490;2023-06-26T13:41:14;2.95;;;1.80;;
45466;SDS011;31212;49.734;8.490;2023-06-26T13:43:41;4.03;;;1.50;;
45466;SDS011;31212;49.734;8.490;2023-06-26T13:46:07;4.63;;;1.70;;
45466;SDS011;31212;49.734;8.490;2023-06-26T13:48:35;4.90;;;1.52;;
45466;SDS011;31212;49.734;8.490;2023-06-26T13:51:02;3.25;;;1.63;;
45466;SDS011;31212;49.734;8.490;2023-06-26T13:53:29;7.30;;;1.92;;
45466;SDS011;31212;49.734;8.490;2023-06-26T13:55:55;3.15;;;2.13;;
45466;SDS011;31212;49.734;8.490;2023-06-26T13:58:22;2.92;;;1.80;;
45466;SDS011;31212;49.734;8.490;2023-06-26T14:00:51;3.20;;;1.30;;
45466;SDS011;31212;49.734;8.490;2023-06-26T14:03:18;3.58;;;2.08;;
45466;SDS011;31212;49.734;8.490;2023-06-26T14:05:46;3.10;;;1.70;;
45466;SDS011;31212;49.734;8.490;2023-06-26T14:08:13;3.22;;;1.45;;
45466;SDS011;31212;49.734;8.490;2023-06-26T14:10:40;2.25;;;1.30;;
45466;SDS011;31212;49.734;8.490;2023-06-26T14:13:06;2.55;;;1.40;;
45466;SDS011;31212;49.734;8.490;2023-06-26T14:15:34;3.08;;;1.70;;
45466;SDS011;31212;49.734;8.490;2023-06-26T14:18:00;2.72;;;1.33;;
45466;SDS011;31212;49.734;8.490;2023-06-26T14:20:28;3.78;;;2.10;;
45466;SDS011;31212;49.734;8.490;2023-06-26T14:22:59;3.88;;;1.77;;
45466;SDS011;31212;49.734;8.490;2023-06-26T14:25:25;2.83;;;1.77;;
45466;SDS011;31212;49.734;8.490;2023-06-26T14:27:53;2.10;;;1.40;;
45466;SDS011;31212;49.734;8.490;2023-06-26T14:30:20;7.32;;;1.50;;
45466;SDS011;31212;49.734;8.490;2023-06-26T14:32:46;5.70;;;1.45;;
45466;SDS011;31212;49.734;8.490;2023-06-26T14:35:13;7.20;;;1.20;;
45466;SDS011;31212;49.734;8.490;2023-06-26T14:37:39;1.45;;;0.95;;
45466;SDS011;31212;49.734;8.490;2023-06-26T14:40:11;3.22;;;1.33;;
45466;SDS011;31212;49.734;8.490;2023-06-26T14:42:38;3.15;;;1.73;;
45466;SDS011;31212;49.734;8.490;2023-06-26T14:45:05;3.47;;;1.30;;
45466;SDS011;31212;49.734;8.490;2023-06-26T14:47:32;5.47;;;1.60;;
45466;SDS011;31212;49.734;8.490;2023-06-26T14:49:58;7.03;;;1.40;;
45466;SDS011;31212;49.734;8.490;2023-06-26T14:52:26;3.72;;;1.20;;
45466;SDS011;31212;49.734;8.490;2023-06-26T14:54:52;1.30;;;1.10;;
45466;SDS011;31212;49.734;8.490;2023-06-26T14:57:20;6.40;;;2.20;;